Time;durP1;ratioP1;P1;durP2;ratioP2;P2;SDS_P1;SDS_P2;PMS_P1;PMS_P2;Temp;Humidity;BMP_temperature;BMP_pressure;BME280_temperature;BME280_humidity;BME280_pressure;Samples;Min_cycle;Max_cycle;Signal;HPM_P1;HPM_P2
2021/07/24 00:01:33;;;;;;;10.52;7.32;;;;;;;27.93;40.22;99605.78;4485253;32;33530;-64
2021/07/24 00:04:01;;;;;;;11.95;7.62;;;;;;;27.93;40.25;99605.78;4485331;32;34171;-64
2021/07/24 00:06:47;;;;;;;11.02;7.20;;;;;;;27.93;40.30;99605.78;4485002;32;34753;-63
2021/07/24 00:09:15;;;;;;;13.80;7.80;;;;;;;27.92;40.38;99604.13;4485463;32;34855;-64
2021/07/24 00:11:58;;;;;;;9.18;7.53;;;;;;;28.51;39.30;99607.19;4522300;31;125269;-63
2021/07/24 00:14:25;;;;;;;13.80;7.35;;;;;;;28.51;39.40;99606.81;4512084;31;33153;-64
2021/07/24 00:16:53;;;;;;;13.32;7.65;;;;;;;27.92;40.28;99604.13;4512099;31;34369;-62
2021/07/24 00:19:21;;;;;;;10.90;7.85;;;;;;;27.91;40.32;99617.00;4508602;31;33617;-63
2021/07/24 00:21:50;;;;;;;10.68;7.28;;;;;;;27.91;40.32;99619.75;4496239;32;34539;-63
2021/07/24 00:24:17;;;;;;;11.15;7.32;;;;;;;27.93;40.31;99619.50;4496451;31;33620;-65
2021/07/24 00:26:46;;;;;;;9.88;7.03;;;;;;;27.92;40.32;99612.34;4495972;31;34080;-63
2021/07/24 00:29:14;;;;;;;11.93;7.22;;;;;;;27.91;40.33;99614.28;4496070;32;34970;-66
2021/07/24 00:31:42;;;;;;;12.82;7.35;;;;;;;27.93;40.37;99601.16;4495978;31;34679;-62
2021/07/24 00:34:10;;;;;;;11.15;8.02;;;;;;;27.93;40.38;99609.38;4495843;32;34457;-64
2021/07/24 00:36:39;;;;;;;15.10;7.68;;;;;;;27.92;40.40;99613.19;4496472;31;35245;-65
2021/07/24 00:39:07;;;;;;;8.55;6.80;;;;;;;27.93;40.38;99611.25;4496325;31;34818;-63
2021/07/24 00:41:48;;;;;;;12.37;7.70;;;;;;;27.92;40.39;99604.94;4495832;31;34659;-63
2021/07/24 00:44:17;;;;;;;9.68;7.40;;;;;;;27.94;40.36;99612.94;4466511;32;33325;-63
2021/07/24 00:46:45;;;;;;;11.15;7.80;;;;;;;27.91;40.41;99605.22;4480133;32;34172;-62
2021/07/24 00:49:12;;;;;;;12.88;7.18;;;;;;;27.91;40.40;99602.47;4479093;32;34258;-62
2021/07/24 00:51:44;;;;;;;11.43;7.30;;;;;;;27.90;40.30;99606.31;4478763;32;32645;-62
2021/07/24 00:54:12;;;;;;;11.95;7.57;;;;;;;27.91;40.35;99605.22;4487849;32;33528;-63
2021/07/24 00:56:43;;;;;;;9.95;7.32;;;;;;;27.90;40.35;99606.31;4495880;32;34016;-64
2021/07/24 00:59:10;;;;;;;12.65;8.20;;;;;;;27.90;40.33;99607.16;4495783;31;34848;-62
2021/07/24 01:01:41;;;;;;;12.52;7.28;;;;;;;27.90;40.31;99600.84;4495763;32;33731;-63
2021/07/24 01:04:09;;;;;;;13.30;7.45;;;;;;;27.90;40.31;99603.59;4495823;32;33580;-64
2021/07/24 01:06:37;;;;;;;11.25;7.70;;;;;;;27.89;40.29;99602.75;4495652;31;34771;-63
2021/07/24 01:09:05;;;;;;;11.32;7.95;;;;;;;27.89;40.21;99601.94;4496137;32;35089;-63
2021/07/24 01:11:35;;;;;;;13.88;7.53;;;;;;;27.89;40.20;99601.94;4494828;32;34135;-65
2021/07/24 01:14:02;;;;;;;13.52;7.57;;;;;;;27.88;40.25;99603.00;4507735;31;33460;-62
2021/07/24 01:16:30;;;;;;;10.15;6.97;;;;;;;27.89;40.25;99600.00;4494737;32;34071;-63
2021/07/24 01:18:59;;;;;;;13.57;8.13;;;;;;;27.88;40.23;99595.59;4495938;31;35124;-63
2021/07/24 01:21:28;;;;;;;9.63;7.57;;;;;;;27.88;40.23;99598.34;4493314;32;33409;-62
2021/07/24 01:23:56;;;;;;;13.60;8.02;;;;;;;27.88;40.22;99597.50;4485325;32;33590;-63
2021/07/24 01:26:34;;;;;;;9.77;7.87;;;;;;;27.87;40.19;99593.94;4485306;32;34891;-63
2021/07/24 01:29:03;;;;;;;12.23;7.25;;;;;;;27.87;40.20;99591.19;4496188;31;33812;-63
2021/07/24 01:31:30;;;;;;;10.50;6.85;;;;;;;27.87;40.20;99598.59;4484079;32;33435;-63
2021/07/24 01:33:59;;;;;;;12.02;7.45;;;;;;;27.88;40.21;99598.34;4485155;32;33467;-62
2021/07/24 01:36:28;;;;;;;13.15;7.57;;;;;;;27.89;40.20;99596.44;4485223;32;33874;-63
2021/07/24 01:38:56;;;;;;;12.82;8.40;;;;;;;27.88;40.21;99589.28;4485093;32;34583;-62
2021/07/24 01:41:24;;;;;;;11.32;7.62;;;;;;;27.89;40.18;99593.72;4484031;32;33715;-65
2021/07/24 01:43:52;;;;;;;12.70;7.57;;;;;;;27.87;40.24;99599.44;4484766;32;33460;-62
2021/07/24 01:46:21;;;;;;;15.65;7.30;;;;;;;27.87;40.26;99590.37;4469512;32;33961;-62
2021/07/24 01:49:04;;;;;;;12.32;7.57;;;;;;;27.86;40.31;99595.03;4468986;32;34048;-62
2021/07/24 01:54:48;;;;;;;10.88;7.20;;;;;;;27.88;40.20;99590.09;4468546;32;34233;-62
2021/07/24 01:57:16;;;;;;;11.82;7.78;;;;;;;27.86;40.22;99594.22;4467733;32;34000;-63
2021/07/24 01:59:45;;;;;;;10.48;8.13;;;;;;;27.85;40.21;99592.56;4462400;32;32564;-62
2021/07/24 02:02:14;;;;;;;12.90;7.60;;;;;;;27.84;40.23;99585.41;4483267;32;34478;-62
2021/07/24 02:04:48;;;;;;;11.23;7.82;;;;;;;27.84;40.19;99583.53;4484666;32;33373;-61
2021/07/24 02:07:17;;;;;;;11.75;7.78;;;;;;;27.86;40.22;99577.75;4483140;32;32869;-63
2021/07/24 02:09:45;;;;;;;9.87;6.73;;;;;;;27.84;40.15;99580.78;4483668;32;34080;-62
2021/07/24 02:12:13;;;;;;;12.37;6.93;;;;;;;27.85;40.10;99582.44;4496827;31;34571;-63
2021/07/24 02:14:42;;;;;;;11.12;7.45;;;;;;;27.84;40.07;99586.25;4485133;32;33475;-62
2021/07/24 02:17:10;;;;;;;13.40;7.57;;;;;;;27.85;40.02;99584.34;4484925;32;33926;-64
2021/07/24 02:19:38;;;;;;;11.18;8.00;;;;;;;27.84;40.06;99582.66;4484081;32;34795;-63
2021/07/24 02:22:06;;;;;;;10.43;6.70;;;;;;;27.84;40.04;99575.28;4483488;32;33995;-62
2021/07/24 02:24:35;;;;;;;9.40;7.37;;;;;;;27.84;40.07;99579.94;4484972;32;33232;-62
2021/07/24 02:27:08;;;;;;;13.70;7.87;;;;;;;27.83;40.07;99570.06;4484931;32;34906;-62
2021/07/24 02:29:36;;;;;;;12.48;7.75;;;;;;;27.83;40.06;99575.53;4484931;32;34860;-62
2021/07/24 02:32:05;;;;;;;11.15;7.55;;;;;;;27.84;39.99;99579.94;4484476;32;33724;-63
2021/07/24 02:34:32;;;;;;;14.27;7.62;;;;;;;27.81;39.96;99575.81;4483891;32;33621;-63
2021/07/24 02:37:00;;;;;;;10.75;7.93;;;;;;;27.82;39.95;99577.47;4483663;32;34845;-63
2021/07/24 02:39:28;;;;;;;9.73;7.65;;;;;;;27.82;39.96;99576.63;4462594;32;34299;-62
2021/07/24 02:41:56;;;;;;;9.13;7.47;;;;;;;27.82;39.99;99582.94;4475992;32;33854;-62
2021/07/24 02:44:24;;;;;;;9.45;7.35;;;;;;;27.82;39.96;99576.63;4484493;32;33293;-62
2021/07/24 02:46:51;;;;;;;10.60;7.60;;;;;;;27.81;39.95;99575.81;4484531;32;33966;-62
2021/07/24 02:49:21;;;;;;;11.82;7.62;;;;;;;27.81;39.97;99569.50;4484784;32;34260;-62
2021/07/24 02:51:51;;;;;;;9.77;7.18;;;;;;;27.82;40.01;99568.41;4483124;32;34483;-62
2021/07/24 02:54:19;;;;;;;11.95;8.00;;;;;;;27.81;40.05;99574.97;4469098;32;33231;-63
2021/07/24 02:56:47;;;;;;;10.20;7.37;;;;;;;27.82;40.08;99576.63;4467760;32;32474;-65
2021/07/24 02:59:15;;;;;;;12.63;7.65;;;;;;;27.82;40.08;99571.16;4481116;32;33512;-63
2021/07/24 03:01:43;;;;;;;12.32;7.37;;;;;;;27.82;40.09;99576.63;4484507;32;33438;-64
2021/07/24 03:04:11;;;;;;;13.68;7.50;;;;;;;27.81;40.09;99572.25;4484422;32;34355;-63
2021/07/24 03:06:39;;;;;;;10.98;7.45;;;;;;;27.81;40.09;99573.06;4483117;32;34723;-62
2021/07/24 03:09:07;;;;;;;11.15;7.82;;;;;;;27.81;40.07;99575.81;4482613;32;34489;-62
2021/07/24 03:11:34;;;;;;;12.88;7.85;;;;;;;27.81;40.06;99578.53;4468573;32;33443;-63
2021/07/24 03:14:02;;;;;;;9.95;7.07;;;;;;;27.80;40.09;99567.84;4468660;32;33504;-63
2021/07/24 03:16:30;;;;;;;14.57;7.15;;;;;;;27.80;40.10;99576.91;4468600;32;33939;-62
2021/07/24 03:18:57;;;;;;;14.98;7.70;;;;;;;27.80;40.10;99573.34;4480351;32;34398;-65
2021/07/24 03:21:25;;;;;;;15.27;8.32;;;;;;;27.81;40.09;99581.28;4468514;32;33946;-62
2021/07/24 03:23:53;;;;;;;11.12;7.87;;;;;;;27.82;40.06;99576.63;4467461;32;34156;-63
2021/07/24 03:26:20;;;;;;;9.60;7.07;;;;;;;27.81;40.09;99569.50;4480997;31;34711;-62
2021/07/24 03:28:48;;;;;;;12.05;7.47;;;;;;;27.81;40.11;99574.97;4468426;32;33964;-62
2021/07/24 03:31:15;;;;;;;10.82;7.90;;;;;;;27.81;40.10;99570.31;4468770;32;33444;-62
2021/07/24 03:33:43;;;;;;;11.27;7.28;;;;;;;27.81;40.11;99574.97;4467292;32;33034;-63
2021/07/24 03:36:10;;;;;;;11.52;7.72;;;;;;;27.80;40.11;99565.94;4483015;32;33901;-63
2021/07/24 03:38:38;;;;;;;10.95;8.07;;;;;;;27.80;40.10;99576.09;4484243;32;34801;-62
2021/07/24 03:41:05;;;;;;;8.82;7.00;;;;;;;27.80;40.10;99573.34;4484241;32;33986;-64
2021/07/24 03:43:33;;;;;;;12.52;7.93;;;;;;;27.80;40.06;99568.69;4483161;32;33557;-61
2021/07/24 03:46:00;;;;;;;12.88;7.32;;;;;;;27.80;40.01;99571.41;4483633;32;33838;-63
2021/07/24 03:48:28;;;;;;;10.18;7.93;;;;;;;27.80;40.04;99574.16;4483982;32;33990;-64
2021/07/24 03:50:55;;;;;;;10.25;7.82;;;;;;;27.79;40.04;99572.47;4483930;32;33692;-63
2021/07/24 03:53:23;;;;;;;15.55;7.70;;;;;;;27.80;40.04;99576.91;4483916;32;33479;-64
2021/07/24 03:55:51;;;;;;;11.63;7.28;;;;;;;27.79;39.97;99577.13;4483979;32;33934;-63
2021/07/24 03:58:20;;;;;;;14.40;7.82;;;;;;;27.79;40.00;99577.13;4483701;32;34903;-62
2021/07/24 04:00:48;;;;;;;11.40;8.05;;;;;;;27.80;39.99;99576.09;4477735;32;33994;-62
2021/07/24 04:03:18;;;;;;;10.10;7.40;;;;;;;27.80;39.95;99579.66;4468279;32;33375;-65
2021/07/24 04:05:47;;;;;;;12.27;7.70;;;;;;;27.79;39.90;99582.63;4467944;32;34724;-63
2021/07/24 04:08:14;;;;;;;12.18;8.68;;;;;;;27.79;39.91;99579.88;4479876;32;33445;-63
2021/07/24 04:10:42;;;;;;;10.25;7.53;;;;;;;27.78;39.89;99584.53;4467801;32;33804;-66
2021/07/24 04:13:09;;;;;;;11.45;7.65;;;;;;;27.80;39.90;99581.56;4453825;32;33483;-62
2021/07/24 04:15:37;;;;;;;10.52;7.25;;;;;;;27.79;39.89;99572.47;4466797;32;33934;-64
2021/07/24 04:18:09;;;;;;;12.07;7.80;;;;;;;27.79;39.85;99569.75;4480006;31;34037;-66
2021/07/24 04:20:37;;;;;;;9.80;7.80;;;;;;;27.79;39.80;99579.88;4467882;32;34362;-62
2021/07/24 04:23:05;;;;;;;12.70;7.85;;;;;;;27.78;39.80;99576.31;4467823;32;34093;-63
2021/07/24 04:25:32;;;;;;;9.85;7.82;;;;;;;27.79;39.82;99579.88;4467845;32;34393;-62
2021/07/24 04:28:00;;;;;;;9.65;7.60;;;;;;;27.78;39.82;99575.50;4467888;32;34618;-64
2021/07/24 04:30:28;;;;;;;10.95;7.82;;;;;;;27.78;39.71;99572.75;4466423;32;34133;-62
2021/07/24 04:32:55;;;;;;;12.93;7.75;;;;;;;27.77;39.70;99573.84;4467662;32;33641;-63
2021/07/24 04:35:23;;;;;;;13.27;7.20;;;;;;;27.75;39.80;99571.38;4477507;32;33846;-62
2021/07/24 04:37:50;;;;;;;11.02;7.45;;;;;;;27.76;40.01;99567.53;4483257;32;33729;-62
2021/07/24 04:40:18;;;;;;;18.95;7.75;;;;;;;27.76;39.48;99577.69;4483271;32;34342;-62
2021/07/24 04:42:45;;;;;;;16.10;7.07;;;;;;;27.76;39.46;99569.47;4483419;32;33438;-62
2021/07/24 04:45:14;;;;;;;13.68;7.85;;;;;;;27.76;39.60;99574.94;4483179;32;34749;-62
2021/07/24 04:47:41;;;;;;;14.32;8.15;;;;;;;27.75;39.80;99576.88;4483067;32;34169;-63
2021/07/24 04:50:09;;;;;;;11.43;7.75;;;;;;;27.76;39.72;99577.69;4483275;32;33328;-62
2021/07/24 04:52:37;;;;;;;11.40;7.62;;;;;;;27.73;39.64;99573.53;4471740;32;33360;-62
2021/07/24 04:55:04;;;;;;;17.40;7.75;;;;;;;27.74;39.51;99580.66;4467295;32;34083;-62
2021/07/24 04:57:32;;;;;;;11.73;7.78;;;;;;;27.73;39.38;99572.72;4468419;32;34195;-62
2021/07/24 04:59:59;;;;;;;9.65;7.12;;;;;;;27.73;39.39;99569.97;4468466;32;33750;-62
2021/07/24 05:02:27;;;;;;;12.00;7.45;;;;;;;27.73;39.43;99569.97;4469475;32;34438;-61
2021/07/24 05:04:54;;;;;;;13.10;7.97;;;;;;;27.74;39.46;99579.84;4468349;32;34644;-62
2021/07/24 05:07:22;;;;;;;14.85;8.05;;;;;;;27.73;39.44;99581.75;4468328;32;34985;-62
2021/07/24 05:09:50;;;;;;;11.18;7.53;;;;;;;27.72;39.43;99574.63;4469677;32;33828;-62
2021/07/24 05:12:18;;;;;;;11.15;7.95;;;;;;;27.73;39.29;99584.50;4469464;32;33360;-62
2021/07/24 05:14:45;;;;;;;11.45;7.40;;;;;;;27.73;39.28;99580.94;4469499;32;33857;-62
2021/07/24 05:17:13;;;;;;;12.15;7.18;;;;;;;27.72;39.30;99582.84;4469199;32;34010;-62
2021/07/24 05:19:44;;;;;;;12.07;7.50;;;;;;;27.72;39.25;99582.84;4469570;32;33775;-62
2021/07/24 05:22:13;;;;;;;11.50;7.15;;;;;;;27.71;39.26;99575.69;4468262;32;34292;-62
2021/07/24 05:24:44;;;;;;;10.82;7.45;;;;;;;27.70;39.17;99577.59;4469509;32;33966;-63
2021/07/24 05:27:12;;;;;;;10.98;7.90;;;;;;;27.71;39.19;99581.19;4480170;32;34923;-63
2021/07/24 05:29:40;;;;;;;15.18;7.60;;;;;;;27.70;39.29;99577.59;4481261;32;33475;-62
2021/07/24 05:32:08;;;;;;;14.77;7.60;;;;;;;27.73;39.43;99583.69;4467947;32;33396;-62
2021/07/24 05:34:36;;;;;;;14.48;7.47;;;;;;;27.73;39.45;99580.94;4474402;31;33899;-63
2021/07/24 05:37:03;;;;;;;15.05;7.62;;;;;;;27.72;39.39;99571.88;4485209;32;33994;-66
2021/07/24 05:39:31;;;;;;;11.90;7.82;;;;;;;27.71;39.40;99584.78;4484815;32;33921;-62
2021/07/24 05:41:59;;;;;;;12.25;7.90;;;;;;;27.72;39.37;99585.59;4484399;32;33383;-63
2021/07/24 05:44:26;;;;;;;12.63;7.70;;;;;;;27.73;39.35;99595.47;4484875;32;33973;-62
2021/07/24 05:46:54;;;;;;;18.37;8.77;;;;;;;27.73;39.33;99589.16;4484824;32;35028;-63
2021/07/24 05:49:22;;;;;;;9.68;7.50;;;;;;;27.71;39.28;99584.78;4485157;32;33912;-64
2021/07/24 05:51:50;;;;;;;13.00;8.20;;;;;;;27.71;39.21;99590.25;4485026;32;33387;-63
2021/07/24 05:54:18;;;;;;;10.75;7.40;;;;;;;27.72;39.22;99596.56;4485004;32;33758;-62
2021/07/24 05:56:45;;;;;;;15.70;7.57;;;;;;;27.70;39.20;99594.06;4483554;32;34020;-63
2021/07/24 05:59:13;;;;;;;12.23;7.78;;;;;;;27.70;39.22;99591.31;4484206;32;33826;-62
2021/07/24 06:01:40;;;;;;;14.68;7.32;;;;;;;27.70;39.19;99599.53;4485158;32;32871;-63
2021/07/24 06:04:08;;;;;;;11.10;7.60;;;;;;;27.71;39.21;99595.75;4496524;31;33976;-65
2021/07/24 06:06:36;;;;;;;10.77;8.10;;;;;;;27.72;39.28;99596.56;4484736;32;34135;-63
2021/07/24 06:09:03;;;;;;;10.80;7.25;;;;;;;27.71;39.25;99598.47;4484806;32;33952;-63
2021/07/24 06:11:33;;;;;;;19.83;8.15;;;;;;;27.71;39.32;99598.47;4484648;32;33139;-63
2021/07/24 06:14:22;;;;;;;12.68;7.95;;;;;;;27.72;39.38;99604.78;4494473;31;34408;-62
2021/07/24 06:16:51;;;;;;;10.70;7.87;;;;;;;27.71;39.45;99601.22;4484118;32;34097;-62
2021/07/24 06:19:18;;;;;;;14.20;7.45;;;;;;;27.74;39.51;99610.00;4496386;31;34787;-63
2021/07/24 06:21:46;;;;;;;12.07;7.85;;;;;;;27.73;39.24;99608.34;4483829;32;33787;-63
2021/07/24 06:24:14;;;;;;;14.05;7.45;;;;;;;27.70;39.42;99605.03;4484820;32;33833;-62
2021/07/24 06:26:41;;;;;;;13.07;7.65;;;;;;;27.70;39.45;99607.75;4496407;31;34012;-62
2021/07/24 06:29:09;;;;;;;11.30;7.93;;;;;;;27.70;39.47;99601.47;4496150;31;34489;-62
2021/07/24 06:31:38;;;;;;;9.20;7.65;;;;;;;27.69;39.38;99602.53;4483584;32;33828;-62
2021/07/24 06:34:06;;;;;;;11.25;8.23;;;;;;;27.70;39.52;99606.94;4498153;31;32383;-64
2021/07/24 06:36:34;;;;;;;12.88;7.40;;;;;;;27.69;39.53;99603.34;4500540;31;33752;-62
2021/07/24 06:39:05;;;;;;;11.90;8.13;;;;;;;27.70;39.49;99609.69;4500553;31;33846;-64
2021/07/24 06:41:34;;;;;;;10.32;6.75;;;;;;;27.68;39.55;99604.44;4500316;31;33485;-62
2021/07/24 06:44:02;;;;;;;13.25;8.20;;;;;;;27.69;39.65;99608.81;4500187;31;33605;-62
2021/07/24 06:46:30;;;;;;;10.32;7.78;;;;;;;27.71;39.64;99611.31;4500366;31;34066;-62
2021/07/24 06:48:59;;;;;;;12.43;8.07;;;;;;;27.69;39.67;99606.09;4500121;31;34503;-62
2021/07/24 06:51:26;;;;;;;15.75;7.78;;;;;;;27.68;39.72;99607.19;4500520;31;33066;-63
2021/07/24 06:53:54;;;;;;;13.07;7.70;;;;;;;27.70;39.76;99598.72;4500056;31;34029;-63
2021/07/24 06:56:22;;;;;;;13.00;8.00;;;;;;;27.71;39.70;99601.22;4511593;31;34157;-63
2021/07/24 06:58:51;;;;;;;19.42;9.32;;;;;;;27.71;39.67;99601.22;4500348;31;33885;-63
2021/07/24 07:01:19;;;;;;;14.73;8.82;;;;;;;27.71;39.65;99595.75;4500332;31;32800;-63
2021/07/24 07:03:47;;;;;;;15.02;8.85;;;;;;;27.70;39.74;99601.47;4500404;31;33556;-63
2021/07/24 07:06:14;;;;;;;13.30;7.30;;;;;;;27.70;39.75;99607.75;4500278;31;33779;-63
2021/07/24 07:08:42;;;;;;;16.67;7.93;;;;;;;27.71;39.87;99606.69;4511865;31;32303;-63
2021/07/24 07:11:09;;;;;;;16.50;7.90;;;;;;;27.71;39.83;99608.59;4500250;31;34376;-63
2021/07/24 07:13:37;;;;;;;13.15;8.05;;;;;;;27.71;39.85;99605.84;4500205;31;33988;-63
2021/07/24 07:16:06;;;;;;;24.17;8.73;;;;;;;27.70;39.81;99607.75;4500010;31;34067;-62
2021/07/24 07:18:34;;;;;;;13.55;8.15;;;;;;;27.69;39.81;99603.34;4498985;31;33870;-62
2021/07/24 07:21:01;;;;;;;18.33;9.00;;;;;;;27.70;39.77;99598.72;4485563;31;32908;-63
2021/07/24 07:23:29;;;;;;;16.02;8.55;;;;;;;27.71;39.77;99598.47;4500131;31;33966;-62
2021/07/24 07:25:56;;;;;;;17.87;8.57;;;;;;;27.70;39.77;99593.22;4498925;31;34084;-62
2021/07/24 07:28:24;;;;;;;17.35;7.95;;;;;;;27.71;39.76;99589.41;4498956;31;33779;-62
2021/07/24 07:30:51;;;;;;;14.02;8.35;;;;;;;27.72;39.75;99588.34;4499949;31;34132;-65
2021/07/24 07:33:20;;;;;;;12.02;8.25;;;;;;;27.72;39.74;99588.34;4498828;31;34678;-64
2021/07/24 07:35:47;;;;;;;17.50;8.25;;;;;;;27.73;39.75;99586.41;4487267;31;34019;-63
2021/07/24 07:38:16;;;;;;;13.15;9.13;;;;;;;27.73;39.74;99587.25;4484131;32;33494;-62
2021/07/24 07:40:44;;;;;;;14.05;8.02;;;;;;;27.73;39.78;99586.41;4483047;32;34253;-64
2021/07/24 07:43:11;;;;;;;13.15;7.78;;;;;;;27.75;39.78;99592.47;4482874;32;34187;-64
2021/07/24 07:45:40;;;;;;;11.63;8.00;;;;;;;27.74;39.80;99585.31;4484013;32;35322;-63
2021/07/24 07:48:08;;;;;;;13.88;7.37;;;;;;;27.75;39.77;99584.25;4483027;32;34071;-64
2021/07/24 07:50:36;;;;;;;11.85;8.10;;;;;;;27.75;39.79;99581.53;4482912;32;34246;-64
2021/07/24 07:53:04;;;;;;;16.27;8.30;;;;;;;27.76;39.79;99574.94;4483888;32;34652;-63
2021/07/24 07:55:31;;;;;;;12.55;7.43;;;;;;;27.77;39.80;99579.34;4483022;32;34907;-64
2021/07/24 07:57:59;;;;;;;11.02;8.07;;;;;;;27.75;39.80;99579.59;4484037;32;33860;-63
2021/07/24 08:00:27;;;;;;;13.98;8.23;;;;;;;27.76;39.81;99569.47;4483891;32;34146;-64
2021/07/24 08:02:55;;;;;;;13.30;8.30;;;;;;;27.76;39.81;99580.44;4483889;32;34152;-64
2021/07/24 08:05:23;;;;;;;15.65;7.70;;;;;;;27.77;39.82;99576.59;4484038;32;34127;-64
2021/07/24 08:07:50;;;;;;;13.82;8.00;;;;;;;27.77;39.81;99571.94;4483729;32;33490;-65
2021/07/24 08:10:21;;;;;;;12.25;8.43;;;;;;;27.77;39.82;99571.94;4483717;32;33171;-64
2021/07/24 08:12:49;;;;;;;11.25;6.72;;;;;;;27.77;39.83;99571.94;4483958;32;33845;-64
2021/07/24 08:15:16;;;;;;;11.48;7.43;;;;;;;27.78;39.82;99567.28;4483849;32;33388;-64
2021/07/24 08:17:44;;;;;;;14.00;7.35;;;;;;;27.78;39.82;99570.84;4483767;32;34728;-64
2021/07/24 08:20:12;;;;;;;11.52;7.43;;;;;;;27.78;39.83;99559.03;4482846;32;33495;-63
2021/07/24 08:22:39;;;;;;;15.65;8.07;;;;;;;27.78;39.85;99559.87;4483511;32;34031;-64
2021/07/24 08:25:07;;;;;;;11.60;6.65;;;;;;;27.78;39.85;99556.31;4482446;32;35228;-64
2021/07/24 08:27:35;;;;;;;13.62;7.60;;;;;;;27.77;39.85;99555.47;4483596;32;33628;-64
2021/07/24 08:30:03;;;;;;;10.93;7.40;;;;;;;27.77;39.83;99558.22;4482204;32;33122;-63
2021/07/24 08:32:31;;;;;;;9.43;7.03;;;;;;;27.79;39.85;99566.19;4483063;32;34790;-64
2021/07/24 08:34:58;;;;;;;11.45;7.75;;;;;;;27.79;39.86;99563.44;4493128;31;34224;-63
2021/07/24 08:37:25;;;;;;;13.30;7.60;;;;;;;27.80;39.85;99567.84;4500050;31;33792;-63
2021/07/24 08:39:53;;;;;;;10.52;7.32;;;;;;;27.78;39.86;99562.62;4501339;31;33701;-63
2021/07/24 08:42:30;;;;;;;12.27;7.57;;;;;;;27.79;39.87;99566.19;4500117;31;33970;-63
2021/07/24 08:44:58;;;;;;;9.57;7.03;;;;;;;27.80;39.86;99565.13;4501232;31;33854;-64
2021/07/24 08:47:27;;;;;;;12.35;7.35;;;;;;;27.80;39.85;99568.69;4494542;31;33835;-62
2021/07/24 08:49:58;;;;;;;14.35;7.22;;;;;;;27.79;39.87;99569.75;4480596;32;33249;-64
2021/07/24 08:52:28;;;;;;;11.82;7.53;;;;;;;27.80;39.96;99578.81;4485263;32;33556;-64
2021/07/24 08:54:56;;;;;;;13.57;7.30;;;;;;;27.80;39.95;99576.91;4485206;32;33973;-64
2021/07/24 08:57:34;;;;;;;10.98;6.85;;;;;;;27.81;40.09;99566.75;4483826;32;33845;-64
2021/07/24 09:00:07;;;;;;;9.77;6.65;;;;;;;27.82;40.11;99571.16;4485219;32;33717;-65
2021/07/24 09:02:42;;;;;;;10.70;7.62;;;;;;;27.82;40.17;99571.97;4471087;32;34565;-63
2021/07/24 09:05:11;;;;;;;12.35;7.30;;;;;;;27.82;40.24;99565.66;4483805;32;34053;-64
2021/07/24 09:07:39;;;;;;;10.50;6.78;;;;;;;27.84;40.29;99568.97;4469232;32;35534;-63
2021/07/24 09:10:07;;;;;;;10.25;7.15;;;;;;;27.85;40.32;99565.97;4469121;32;33431;-64
2021/07/24 09:12:38;;;;;;;12.52;7.45;;;;;;;27.85;40.35;99565.97;4469311;32;33471;-65
2021/07/24 09:15:07;;;;;;;12.60;6.85;;;;;;;27.87;40.37;99565.69;4469192;32;34358;-63
2021/07/24 09:17:34;;;;;;;9.88;6.70;;;;;;;27.86;40.43;99555.84;4469211;32;34548;-63
2021/07/24 09:20:02;;;;;;;11.55;7.18;;;;;;;27.88;40.49;99562.69;4468228;32;33351;-64
2021/07/24 09:22:40;;;;;;;9.82;7.07;;;;;;;27.90;40.53;99559.72;4469183;32;35375;-63
2021/07/24 09:25:11;;;;;;;12.98;7.68;;;;;;;27.89;40.54;99561.63;4469281;32;33976;-63
2021/07/24 09:27:49;;;;;;;10.50;6.78;;;;;;;27.90;40.58;99557.78;4469248;32;33736;-64
2021/07/24 09:30:38;;;;;;;11.60;6.70;;;;;;;27.93;40.58;99561.91;4469184;32;34574;-64
2021/07/24 09:33:10;;;;;;;10.88;7.20;;;;;;;27.96;40.57;99566.87;4469110;32;34186;-64
2021/07/24 09:35:50;;;;;;;11.05;7.10;;;;;;;27.94;40.59;99558.09;4492556;31;34272;-63
2021/07/24 09:38:28;;;;;;;9.80;6.65;;;;;;;27.94;40.63;99555.34;4500601;31;34625;-64
2021/07/24 09:40:56;;;;;;;9.48;6.40;;;;;;;27.96;40.65;99550.41;4500698;31;34454;-64
2021/07/24 09:43:33;;;;;;;7.97;6.07;;;;;;;27.95;40.69;99555.09;4489429;31;34600;-63
2021/07/24 09:46:07;;;;;;;9.57;6.72;;;;;;;27.95;40.71;99554.25;4484712;32;34962;-64
2021/07/24 09:48:35;;;;;;;10.68;7.10;;;;;;;27.96;40.76;99550.41;4484840;32;33885;-64
2021/07/24 09:51:03;;;;;;;9.20;6.68;;;;;;;27.97;40.80;99554.81;4484705;32;33608;-64
2021/07/24 09:53:40;;;;;;;9.23;6.50;;;;;;;27.97;40.79;99546.59;4483661;32;34153;-63
2021/07/24 09:56:15;;;;;;;9.23;6.65;;;;;;;28.00;40.82;99543.31;4484612;32;34173;-64
2021/07/24 09:58:43;;;;;;;8.73;7.05;;;;;;;28.00;40.86;99546.06;4484784;32;34344;-64
2021/07/24 10:01:11;;;;;;;9.32;6.93;;;;;;;27.99;40.89;99549.91;4484782;32;34122;-65
2021/07/24 10:03:40;;;;;;;8.88;6.22;;;;;;;27.99;40.90;99549.91;4484549;32;33522;-64
2021/07/24 10:06:10;;;;;;;10.77;6.57;;;;;;;28.03;40.88;99563.94;4484704;32;34084;-64
2021/07/24 10:08:39;;;;;;;8.68;6.55;;;;;;;28.02;40.93;99554.84;4484835;32;34103;-64
2021/07/24 10:11:07;;;;;;;9.77;6.05;;;;;;;28.03;40.95;99555.69;4470601;32;34029;-64
2021/07/24 10:13:34;;;;;;;8.93;6.50;;;;;;;28.04;40.96;99555.44;4484549;32;34744;-64
2021/07/24 10:16:04;;;;;;;10.63;6.10;;;;;;;28.04;41.00;99554.59;4484397;32;34859;-65
2021/07/24 10:18:32;;;;;;;9.43;6.35;;;;;;;28.05;40.97;99559.00;4483771;32;33957;-64
2021/07/24 10:21:00;;;;;;;8.85;6.37;;;;;;;28.05;41.00;99562.56;4484832;32;32666;-63
2021/07/24 10:23:28;;;;;;;10.27;6.30;;;;;;;28.06;41.01;99557.91;4484295;32;34959;-65
2021/07/24 10:26:08;;;;;;;8.85;6.30;;;;;;;28.05;41.04;99554.31;4483405;32;33772;-64
2021/07/24 10:28:53;;;;;;;10.38;6.03;;;;;;;28.06;41.06;99555.16;4484617;32;34535;-64
2021/07/24 10:31:43;;;;;;;7.68;5.95;;;;;;;28.08;41.01;99545.59;4483295;32;33053;-63
2021/07/24 10:34:11;;;;;;;8.70;6.55;;;;;;;28.10;41.02;99545.31;4486789;31;34011;-64
2021/07/24 10:36:40;;;;;;;7.65;5.93;;;;;;;28.08;41.09;99548.31;4500369;31;33953;-63
2021/07/24 10:39:16;;;;;;;9.35;6.57;;;;;;;28.09;41.10;99549.16;4500371;31;34575;-63
2021/07/24 10:41:45;;;;;;;11.95;6.10;;;;;;;28.10;41.10;99535.16;4500368;31;34159;-63
2021/07/24 10:44:31;;;;;;;9.70;6.43;;;;;;;28.09;41.13;99533.50;4484351;31;35147;-64
2021/07/24 10:47:01;;;;;;;10.27;6.20;;;;;;;28.07;41.11;99538.44;4484680;32;33945;-64
2021/07/24 10:49:35;;;;;;;8.43;6.30;;;;;;;28.08;41.13;99547.50;4484651;32;33877;-64
2021/07/24 10:52:12;;;;;;;8.27;6.22;;;;;;;28.09;41.10;99535.44;4484810;32;33169;-64
2021/07/24 10:54:51;;;;;;;7.93;6.20;;;;;;;28.08;41.12;99542.84;4477251;32;34904;-69
2021/07/24 10:57:41;;;;;;;12.20;6.22;;;;;;;28.11;40.99;99539.56;4479900;32;34170;-68
2021/07/24 11:00:17;;;;;;;10.38;6.72;;;;;;;28.12;41.00;99541.22;4484451;32;34628;-69
2021/07/24 11:02:49;;;;;;;11.55;6.43;;;;;;;28.11;41.01;99541.47;4484360;32;34785;-70
2021/07/24 11:05:29;;;;;;;13.52;6.57;;;;;;;28.06;41.02;99539.53;4483069;32;33827;-70
2021/07/24 11:07:57;;;;;;;9.25;6.05;;;;;;;28.10;40.91;99539.81;4484433;32;35226;-65
2021/07/24 11:10:25;;;;;;;12.80;7.10;;;;;;;28.07;40.97;99530.22;4484314;32;33847;-64
2021/07/24 11:12:53;;;;;;;9.52;7.28;;;;;;;28.09;40.90;99536.25;4482996;32;32986;-63
2021/07/24 11:15:41;;;;;;;12.35;6.50;;;;;;;28.07;40.89;99527.47;4483003;32;33762;-64
2021/07/24 11:18:27;;;;;;;11.15;7.12;;;;;;;28.12;40.80;99529.41;4484201;32;33999;-63
2021/07/24 11:20:56;;;;;;;11.57;6.55;;;;;;;28.12;40.75;99524.78;4484200;32;33967;-63
2021/07/24 11:23:24;;;;;;;9.93;6.22;;;;;;;28.09;40.76;99524.47;4484292;32;34140;-63
2021/07/24 11:25:52;;;;;;;8.80;6.25;;;;;;;28.09;40.77;99524.47;4484027;32;33704;-63
2021/07/24 11:28:22;;;;;;;10.02;6.70;;;;;;;28.09;40.76;99527.22;4470043;32;33779;-63
2021/07/24 11:30:59;;;;;;;8.98;6.68;;;;;;;28.07;40.76;99519.25;4484029;32;33872;-63
2021/07/24 11:33:30;;;;;;;8.38;6.10;;;;;;;28.09;40.76;99517.06;4482931;32;33326;-63
2021/07/24 11:36:01;;;;;;;10.20;7.55;;;;;;;28.06;40.77;99514.84;4497990;31;34710;-63
2021/07/24 11:38:30;;;;;;;8.50;6.28;;;;;;;28.07;40.67;99518.41;4499834;31;33853;-64
2021/07/24 11:41:03;;;;;;;8.48;6.60;;;;;;;28.07;40.70;99512.91;4498647;31;33893;-65